TimeEST,TemperatureF,Dew PointF,Humidity,Sea Level PressureIn,VisibilityMPH,Wind Direction,Wind SpeedMPH,Gust SpeedMPH,PrecipitationIn,Events,Conditions,WindDirDegrees,DateUTC
12:05 AM,8.6,1.4,73,30.19,1.8,WNW,15.0,24.2,0.00,Snow,Light Snow,300,2013-01-22 05:05:00
12:17 AM,8.6,-0.4,67,30.19,3.0,WNW,15.0,24.2,0.00,Snow,Light Snow,300,2013-01-22 05:17:00
12:45 AM,8.6,-2.2,62,30.19,8.0,NW,15.0,20.7,0.00,,Overcast,310,2013-01-22 05:45:00
12:53 AM,8.1,-0.0,70,30.23,1.8,WNW,17.3,23.0,0.00,Snow,Light Snow,290,2013-01-22 05:53:00
1:04 AM,8.6,-2.2,62,30.19,4.0,WNW,13.8,21.9,0.00,Snow,Light Snow,300,2013-01-22 06:04:00
1:18 AM,8.6,-2.2,62,30.19,4.0,WNW,15.0,28.8,0.00,Snow,Light Snow,300,2013-01-22 06:18:00
1:26 AM,8.6,-4.0,57,30.19,7.0,WNW,15.0,21.9,0.00,,Overcast,290,2013-01-22 06:26:00
1:33 AM,8.6,-2.2,62,30.19,2.5,WNW,15.0,23.0,0.00,Snow,Light Snow,300,2013-01-22 06:33:00
1:44 AM,8.6,-0.4,67,30.19,1.2,WNW,15.0,24.2,0.00,Snow,Light Snow,300,2013-01-22 06:44:00
1:53 AM,8.1,1.9,76,30.23,1.0,WNW,16.1,25.3,0.00,Snow,Light Snow,300,2013-01-22 06:53:00
1:59 AM,8.6,-0.4,67,30.19,2.0,WNW,13.8,24.2,0.00,Snow,Light Snow,300,2013-01-22 06:59:00
2:02 AM,8.6,-2.2,62,30.19,5.0,WNW,11.5,24.2,0.00,Snow,Light Snow,300,2013-01-22 07:02:00
2:07 AM,8.6,-0.4,67,30.19,2.5,WNW,13.8,21.9,0.00,Snow,Light Snow,300,2013-01-22 07:07:00
2:09 AM,8.6,-0.4,67,30.19,1.2,WNW,16.1,23.0,0.00,Snow,Light Snow,290,2013-01-22 07:09:00
2:13 AM,8.6,1.4,73,30.19,0.5,WNW,11.5,23.0,0.00,Snow,Snow,300,2013-01-22 07:13:00
2:20 AM,6.8,3.2,85,30.20,0.5,WNW,18.4,27.6,0.00,Fog-Snow,Snow,300,2013-01-22 07:20:00
2:31 AM,6.8,1.4,79,30.20,0.8,WNW,15.0,25.3,0.00,Snow,Light Snow,290,2013-01-22 07:31:00
2:35 AM,8.6,-0.4,67,30.20,1.5,WNW,15.0,25.3,0.00,Snow,Light Snow,290,2013-01-22 07:35:00
2:46 AM,6.8,1.4,79,30.20,0.8,NW,13.8,25.3,0.00,Snow,Light Snow,310,2013-01-22 07:46:00
2:53 AM,7.0,1.9,80,30.25,0.5,WNW,13.8,25.3,0.00,Snow,Snow,300,2013-01-22 07:53:00
2:59 AM,6.8,1.4,79,30.21,0.8,WNW,17.3,24.2,0.00,Snow,Light Snow,300,2013-01-22 07:59:00
3:02 AM,8.6,1.4,73,30.21,1.0,WNW,17.3,24.2,0.00,Snow,Light Snow,300,2013-01-22 08:02:00
3:09 AM,6.8,1.4,79,30.21,0.8,WNW,11.5,24.2,0.00,Snow,Light Snow,300,2013-01-22 08:09:00
3:17 AM,6.8,-0.4,72,30.21,1.5,WNW,13.8,21.9,0.00,Snow,Light Snow,300,2013-01-22 08:17:00
3:20 AM,6.8,-0.4,72,30.21,2.0,NW,13.8,23.0,0.00,Snow,Light Snow,310,2013-01-22 08:20:00
3:30 AM,6.8,-2.2,67,30.21,3.0,WNW,15.0,23.0,0.00,Snow,Light Snow,290,2013-01-22 08:30:00
3:37 AM,6.8,-0.4,72,30.21,2.0,WNW,13.8,21.9,0.00,Snow,Light Snow,300,2013-01-22 08:37:00
3:47 AM,6.8,-0.4,72,30.22,1.2,West,15.0,21.9,0.00,Snow,Light Snow,280,2013-01-22 08:47:00
3:53 AM,7.0,-0.9,70,30.27,1.5,WNW,13.8,23.0,0.00,Snow,Light Snow,300,2013-01-22 08:53:00
4:12 AM,6.8,-2.2,67,30.22,3.0,WNW,10.4,20.7,0.00,Snow,Light Snow,300,2013-01-22 09:12:00
4:36 AM,6.8,-4.0,61,30.22,7.0,WNW,11.5,20.7,0.00,,Overcast,290,2013-01-22 09:36:00
4:53 AM,7.0,-2.9,64,30.27,7.0,WNW,13.8,23.0,0.00,,Overcast,290,2013-01-22 09:53:00
5:09 AM,6.8,-2.2,67,30.23,2.5,WNW,13.8,23.0,0.00,Snow,Light Snow,290,2013-01-22 10:09:00
5:12 AM,6.8,-0.4,72,30.23,1.2,NW,12.7,23.0,0.00,Snow,Light Snow,310,2013-01-22 10:12:00
5:23 AM,6.8,-0.4,72,30.23,2.5,WNW,13.8,-,0.00,Snow,Light Snow,290,2013-01-22 10:23:00
5:26 AM,6.8,-2.2,67,30.23,6.0,WNW,10.4,-,0.00,,Haze,290,2013-01-22 10:26:00
5:53 AM,7.0,-2.9,64,30.28,3.0,WNW,12.7,25.3,0.00,Snow,Light Snow,300,2013-01-22 10:53:00
6:28 AM,6.8,-4.0,61,30.24,10.0,WNW,13.8,20.7,0.00,,Mostly Cloudy,300,2013-01-22 11:28:00
6:41 AM,6.8,-4.0,61,30.25,10.0,NW,11.5,19.6,0.00,,Overcast,310,2013-01-22 11:41:00
6:53 AM,7.0,-4.0,61,30.30,4.0,WNW,15.0,21.9,0.00,Snow,Light Snow,300,2013-01-22 11:53:00
7:09 AM,6.8,-0.4,72,30.25,2.0,WNW,15.0,23.0,0.00,Snow,Light Snow,300,2013-01-22 12:09:00
7:15 AM,6.8,-0.4,72,30.25,1.2,WNW,9.2,23.0,0.00,Snow,Light Snow,300,2013-01-22 12:15:00
7:22 AM,6.8,-0.4,72,30.26,2.0,WNW,12.7,21.9,0.00,Snow,Light Snow,290,2013-01-22 12:22:00
7:31 AM,6.8,-2.2,67,30.26,3.0,West,16.1,21.9,0.00,Snow,Light Snow,280,2013-01-22 12:31:00
7:37 AM,6.8,-0.4,72,30.26,1.8,WNW,11.5,25.3,0.00,Snow,Light Snow,290,2013-01-22 12:37:00
7:46 AM,6.8,-0.4,72,30.27,1.2,WNW,16.1,26.5,0.00,Snow,Light Snow,290,2013-01-22 12:46:00
7:49 AM,6.8,-2.2,67,30.27,2.0,West,16.1,24.2,0.00,Snow,Light Snow,280,2013-01-22 12:49:00
7:53 AM,7.0,-0.9,70,30.31,1.5,WNW,9.2,23.0,0.00,Snow,Light Snow,290,2013-01-22 12:53:00
8:02 AM,6.8,-2.2,67,30.27,3.0,WNW,13.8,20.7,0.00,Snow,Light Snow,290,2013-01-22 13:02:00
8:09 AM,6.8,-0.4,72,30.27,1.8,West,13.8,21.9,0.00,Snow,Light Snow,280,2013-01-22 13:09:00
8:18 AM,6.8,-0.4,72,30.27,1.0,WNW,18.4,24.2,0.00,Snow,Light Snow,290,2013-01-22 13:18:00
8:23 AM,6.8,1.4,79,30.27,0.5,West,16.1,24.2,0.00,Snow,Snow,280,2013-01-22 13:23:00
8:53 AM,7.0,1.9,80,30.33,0.2,West,18.4,26.5,0.00,Snow,Heavy Snow,280,2013-01-22 13:53:00
9:46 AM,8.6,1.4,73,30.29,0.2,WNW,13.8,-,0.00,Snow,Heavy Snow,290,2013-01-22 14:46:00
9:53 AM,7.0,1.0,77,30.34,0.5,West,18.4,24.2,0.00,Snow,Snow,280,2013-01-22 14:53:00
10:41 AM,8.6,1.4,73,30.31,0.8,West,16.1,24.2,0.00,Snow,Light Snow,280,2013-01-22 15:41:00
10:53 AM,8.1,1.0,73,30.36,1.2,WNW,16.1,23.0,0.00,Snow,Light Snow,290,2013-01-22 15:53:00
10:57 AM,8.6,-0.4,67,30.31,2.0,WNW,17.3,21.9,0.00,Snow,Light Snow,290,2013-01-22 15:57:00
11:08 AM,8.6,-0.4,67,30.31,4.0,West,15.0,23.0,0.00,Snow,Light Snow,280,2013-01-22 16:08:00
11:25 AM,8.6,-0.4,67,30.31,1.8,West,16.1,24.2,0.00,Snow,Light Snow,270,2013-01-22 16:25:00
11:53 AM,9.0,-0.0,67,30.36,1.5,West,11.5,21.9,0.00,Snow,Light Snow,280,2013-01-22 16:53:00
12:02 PM,8.6,-0.4,67,30.31,2.0,West,15.0,21.9,0.00,Snow,Light Snow,280,2013-01-22 17:02:00
12:13 PM,8.6,1.4,73,30.31,1.5,West,16.1,23.0,0.00,Snow,Light Snow,280,2013-01-22 17:13:00
12:22 PM,8.6,-0.4,67,30.31,3.0,West,12.7,23.0,0.00,Snow,Light Snow,280,2013-01-22 17:22:00
12:30 PM,8.6,-0.4,67,30.30,1.8,West,15.0,-,0.00,Snow,Light Snow,280,2013-01-22 17:30:00
12:32 PM,8.6,-0.4,67,30.30,2.0,West,15.0,-,0.00,Snow,Light Snow,270,2013-01-22 17:32:00
12:36 PM,8.6,-0.4,67,30.30,1.2,WNW,11.5,-,0.00,Snow,Light Snow,290,2013-01-22 17:36:00
12:38 PM,8.6,1.4,73,30.30,0.8,West,10.4,-,0.00,Snow,Light Snow,280,2013-01-22 17:38:00
12:49 PM,8.6,1.4,73,30.29,1.5,WNW,9.2,-,0.00,Snow,Light Snow,290,2013-01-22 17:49:00
12:53 PM,8.1,-0.0,70,30.34,2.5,WNW,11.5,18.4,0.00,Snow,Light Snow,290,2013-01-22 17:53:00
12:58 PM,8.6,-0.4,67,30.29,1.2,West,11.5,17.3,0.00,Snow,Light Snow,280,2013-01-22 17:58:00
1:10 PM,8.6,-0.4,67,30.29,2.0,West,18.4,21.9,0.00,Snow,Light Snow,270,2013-01-22 18:10:00
1:14 PM,8.6,1.4,73,30.30,1.2,West,15.0,-,0.00,Snow,Light Snow,280,2013-01-22 18:14:00
1:23 PM,8.6,1.4,73,30.29,0.8,West,18.4,24.2,0.00,Snow,Light Snow,270,2013-01-22 18:23:00
1:26 PM,8.6,-0.4,67,30.29,1.8,West,13.8,24.2,0.00,Snow,Light Snow,270,2013-01-22 18:26:00
1:29 PM,8.6,-0.4,67,30.29,3.0,West,16.1,24.2,0.00,Snow,Light Snow,270,2013-01-22 18:29:00
1:51 PM,8.6,1.4,73,30.29,1.8,West,12.7,20.7,0.00,Snow,Light Snow,280,2013-01-22 18:51:00
1:53 PM,9.0,1.0,70,30.34,1.0,WNW,9.2,20.7,0.00,Snow,Light Snow,290,2013-01-22 18:53:00
2:01 PM,8.6,1.4,73,30.29,0.5,West,15.0,19.6,0.00,Snow,Snow,280,2013-01-22 19:01:00
2:16 PM,8.6,1.4,73,30.29,1.0,West,16.1,-,0.00,Snow,Light Snow,280,2013-01-22 19:16:00
2:25 PM,8.6,3.2,79,30.29,0.5,West,15.0,-,0.00,Snow,Snow,280,2013-01-22 19:25:00
2:30 PM,8.6,1.4,73,30.29,0.8,West,15.0,-,0.00,Snow,Light Snow,270,2013-01-22 19:30:00
2:32 PM,8.6,1.4,73,30.29,1.0,West,15.0,-,0.00,Snow,Light Snow,270,2013-01-22 19:32:00
2:37 PM,10.4,1.4,67,30.29,2.0,West,16.1,-,0.00,Snow,Light Snow,260,2013-01-22 19:37:00
2:42 PM,10.4,3.2,73,30.29,1.2,West,11.5,-,0.00,Snow,Light Snow,270,2013-01-22 19:42:00
2:51 PM,8.6,1.4,73,30.29,2.0,West,11.5,20.7,0.00,Snow,Light Snow,280,2013-01-22 19:51:00
2:53 PM,9.0,1.0,70,30.34,2.0,West,13.8,20.7,0.00,Snow,Light Snow,280,2013-01-22 19:53:00
2:56 PM,8.6,1.4,73,30.29,1.2,West,13.8,-,0.00,Snow,Light Snow,280,2013-01-22 19:56:00
3:01 PM,8.6,3.2,79,30.29,0.5,WNW,12.7,-,0.00,Snow,Snow,290,2013-01-22 20:01:00
3:12 PM,10.4,3.2,73,30.28,0.5,West,16.1,19.6,0.00,Snow,Snow,260,2013-01-22 20:12:00
3:14 PM,10.4,3.2,73,30.28,0.8,West,16.1,-,0.00,Snow,Light Snow,260,2013-01-22 20:14:00
3:18 PM,10.4,1.4,67,30.29,1.8,West,13.8,-,0.00,Snow,Light Snow,260,2013-01-22 20:18:00
3:23 PM,10.4,1.4,67,30.29,0.8,West,12.7,20.7,0.00,Snow,Light Snow,270,2013-01-22 20:23:00
3:29 PM,8.6,3.2,79,30.28,0.2,WSW,9.2,-,0.00,Snow,Heavy Snow,250,2013-01-22 20:29:00
3:37 PM,10.4,3.2,73,30.29,0.8,West,13.8,18.4,0.00,Snow,Light Snow,260,2013-01-22 20:37:00
3:49 PM,10.4,1.4,67,30.29,1.5,West,17.3,-,0.00,Snow,Light Snow,270,2013-01-22 20:49:00
3:53 PM,10.0,1.0,67,30.33,2.5,West,16.1,-,0.00,Snow,Light Snow,260,2013-01-22 20:53:00
3:59 PM,10.4,1.4,67,30.28,1.8,West,13.8,-,0.00,Snow,Light Snow,270,2013-01-22 20:59:00
4:07 PM,10.4,3.2,73,30.29,1.2,West,16.1,19.6,0.00,Snow,Light Snow,270,2013-01-22 21:07:00
4:13 PM,10.4,1.4,67,30.29,2.0,West,11.5,20.7,0.00,Snow,Light Snow,260,2013-01-22 21:13:00
4:17 PM,10.4,1.4,67,30.29,1.2,WSW,16.1,-,0.00,Snow,Light Snow,250,2013-01-22 21:17:00
4:33 PM,10.4,3.2,73,30.29,0.5,West,9.2,20.7,0.00,Snow,Snow,270,2013-01-22 21:33:00
4:50 PM,10.4,5.0,79,30.28,1.0,West,15.0,-,0.00,Snow,Light Snow,270,2013-01-22 21:50:00
4:53 PM,10.9,5.0,77,30.33,0.8,West,13.8,-,0.00,Snow,Light Snow,280,2013-01-22 21:53:00
5:00 PM,10.4,5.0,79,30.28,0.5,West,9.2,-,0.00,Snow,Snow,270,2013-01-22 22:00:00
5:04 PM,10.4,3.2,73,30.28,1.0,West,16.1,21.9,0.00,Snow,Light Snow,270,2013-01-22 22:04:00
5:28 PM,10.4,3.2,73,30.29,0.8,West,17.3,-,0.00,Snow,Light Snow,260,2013-01-22 22:28:00
5:32 PM,10.4,5.0,79,30.29,1.5,West,12.7,-,0.00,Snow,Light Snow,280,2013-01-22 22:32:00
5:39 PM,10.4,1.4,67,30.29,3.0,West,15.0,18.4,0.00,Snow,Light Snow,280,2013-01-22 22:39:00
5:46 PM,10.4,3.2,73,30.29,2.0,West,12.7,-,0.00,Snow,Light Snow,280,2013-01-22 22:46:00
5:53 PM,10.9,1.9,67,30.33,4.0,West,16.1,-,0.00,Snow,Light Snow,270,2013-01-22 22:53:00
5:57 PM,10.4,3.2,73,30.28,1.8,West,13.8,-,0.00,Snow,Light Snow,270,2013-01-22 22:57:00
6:09 PM,10.4,3.2,73,30.28,3.0,WNW,10.4,-,0.00,Snow,Light Snow,290,2013-01-22 23:09:00
6:18 PM,10.4,5.0,79,30.28,1.8,WNW,10.4,18.4,0.00,Snow,Light Snow,290,2013-01-22 23:18:00
6:31 PM,12.2,3.2,67,30.28,3.0,West,15.0,19.6,0.00,Snow,Light Snow,270,2013-01-22 23:31:00
6:50 PM,12.2,5.0,73,30.28,2.0,West,12.7,-,0.00,Snow,Light Snow,280,2013-01-22 23:50:00
6:53 PM,12.0,5.0,73,30.32,2.0,West,12.7,-,0.00,Snow,Light Snow,270,2013-01-22 23:53:00
7:17 PM,12.2,6.8,79,30.27,1.5,West,11.5,17.3,0.00,Snow,Light Snow,280,2013-01-23 00:17:00
7:22 PM,12.2,3.2,67,30.28,3.0,WNW,12.7,17.3,0.00,Snow,Light Snow,290,2013-01-23 00:22:00
7:35 PM,12.2,3.2,67,30.27,2.5,West,10.4,-,0.00,Snow,Light Snow,280,2013-01-23 00:35:00
7:44 PM,12.2,3.2,67,30.27,5.0,West,8.1,-,0.00,Snow,Light Snow,280,2013-01-23 00:44:00
7:53 PM,12.9,3.9,67,30.32,5.0,WNW,12.7,19.6,0.00,Snow,Light Snow,290,2013-01-23 00:53:00
8:02 PM,12.2,5.0,73,30.27,2.5,WNW,9.2,18.4,0.00,Snow,Light Snow,300,2013-01-23 01:02:00
8:06 PM,12.2,5.0,73,30.27,1.2,WNW,10.4,18.4,0.00,Snow,Light Snow,300,2013-01-23 01:06:00
8:17 PM,12.2,6.8,79,30.27,2.0,WNW,10.4,17.3,0.00,Snow,Light Snow,290,2013-01-23 01:17:00
8:24 PM,12.2,6.8,79,30.27,1.2,NW,10.4,17.3,0.00,Snow,Light Snow,310,2013-01-23 01:24:00
8:32 PM,12.2,5.0,73,30.27,2.0,West,12.7,18.4,0.00,Snow,Light Snow,280,2013-01-23 01:32:00
8:53 PM,12.9,6.1,74,30.31,3.0,WNW,10.4,-,0.00,Snow,Light Snow,290,2013-01-23 01:53:00
9:08 PM,12.2,3.2,67,30.27,4.0,WNW,11.5,18.4,0.00,Snow,Light Snow,300,2013-01-23 02:08:00
9:20 PM,12.2,6.8,79,30.27,1.8,WNW,10.4,18.4,0.00,Snow,Light Snow,290,2013-01-23 02:20:00
9:24 PM,12.2,6.8,79,30.27,2.0,WNW,9.2,16.1,0.00,Snow,Light Snow,300,2013-01-23 02:24:00
9:30 PM,12.2,6.8,79,30.27,3.0,WNW,10.4,16.1,0.00,Snow,Light Snow,290,2013-01-23 02:30:00
9:43 PM,12.2,5.0,73,30.27,4.0,WNW,12.7,18.4,0.00,Snow,Light Snow,300,2013-01-23 02:43:00
9:53 PM,12.9,5.0,71,30.32,3.0,West,10.4,18.4,0.00,Snow,Light Snow,280,2013-01-23 02:53:00
10:23 PM,12.2,6.8,79,30.27,2.0,WNW,10.4,-,0.00,Snow,Light Snow,290,2013-01-23 03:23:00
10:40 PM,12.2,6.8,79,30.28,1.2,WNW,11.5,20.7,0.00,Snow,Light Snow,290,2013-01-23 03:40:00
10:46 PM,12.2,6.8,79,30.28,2.0,WNW,8.1,17.3,0.00,Snow,Light Snow,290,2013-01-23 03:46:00
10:53 PM,12.9,5.0,71,30.32,3.0,WNW,8.1,19.6,0.00,Snow,Light Snow,290,2013-01-23 03:53:00
11:07 PM,12.2,3.2,67,30.28,5.0,WNW,12.7,19.6,0.00,Snow,Light Snow,300,2013-01-23 04:07:00
11:19 PM,12.2,5.0,73,30.28,2.5,WNW,12.7,20.7,0.00,Snow,Light Snow,290,2013-01-23 04:19:00
11:29 PM,12.2,6.8,79,30.28,1.8,WNW,11.5,19.6,0.00,Snow,Light Snow,300,2013-01-23 04:29:00
11:44 PM,12.2,5.0,73,30.29,2.5,WNW,10.4,17.3,0.00,Snow,Light Snow,290,2013-01-23 04:44:00
11:53 PM,12.9,5.0,71,30.34,4.0,WNW,11.5,17.3,0.00,Snow,Light Snow,290,2013-01-23 04:53:00